createdAt,value
2022-12-08T00:00:11.359Z,100132.00
2022-12-08T00:02:44.593Z,100141.00
2022-12-08T00:05:30.957Z,100138.00
2022-12-08T00:08:16.928Z,100128.00
2022-12-08T00:10:49.293Z,100120.00
2022-12-08T00:13:18.770Z,100119.00
2022-12-08T00:15:48.815Z,100127.00
2022-12-08T00:18:17.448Z,100115.00
2022-12-08T00:20:46.119Z,100117.00
2022-12-08T00:23:14.824Z,100128.00
2022-12-08T00:25:43.507Z,100116.00
2022-12-08T00:28:12.202Z,100107.00
2022-12-08T00:30:41.617Z,100108.00
2022-12-08T00:33:12.668Z,100106.00
2022-12-08T00:35:43.311Z,100105.00
2022-12-08T00:38:12.244Z,100084.00
2022-12-08T00:40:46.425Z,100092.00
2022-12-08T00:43:15.574Z,100098.00
2022-12-08T00:45:44.832Z,100091.00
2022-12-08T00:48:14.915Z,100107.00
2022-12-08T00:50:43.657Z,100096.00
2022-12-08T00:53:12.341Z,100099.00
2022-12-08T00:55:41.014Z,100104.00
2022-12-08T00:58:09.674Z,100102.00
2022-12-08T01:00:38.378Z,100107.00
2022-12-08T01:03:07.041Z,100105.00
2022-12-08T01:05:37.089Z,100107.00
2022-12-08T01:08:07.661Z,100097.00
2022-12-08T01:10:37.419Z,100104.00
2022-12-08T01:13:06.697Z,100104.00
2022-12-08T01:15:35.401Z,100088.00
2022-12-08T01:18:04.109Z,100086.00
2022-12-08T01:20:32.843Z,100093.00
2022-12-08T01:23:03.045Z,100085.00
2022-12-08T01:25:31.723Z,100088.00
2022-12-08T01:28:00.408Z,100076.00
2022-12-08T01:30:29.247Z,100083.00
2022-12-08T01:32:59.153Z,100069.00
2022-12-08T01:35:27.814Z,100067.00
2022-12-08T01:37:56.528Z,100067.00
2022-12-08T01:40:26.587Z,100087.00
2022-12-08T01:42:55.236Z,100069.00
2022-12-08T01:45:28.270Z,100075.00
2022-12-08T01:48:01.759Z,100075.00
2022-12-08T01:50:32.002Z,100074.00
2022-12-08T01:53:09.051Z,100081.00
2022-12-08T01:55:44.475Z,100069.00
2022-12-08T01:58:19.729Z,100082.00
2022-12-08T02:00:49.605Z,100067.00
2022-12-08T02:03:28.323Z,100069.00
2022-12-08T02:05:57.015Z,100082.00
2022-12-08T02:08:27.199Z,100064.00
2022-12-08T02:10:57.342Z,100056.00
2022-12-08T02:13:26.979Z,100056.00
2022-12-08T02:16:06.372Z,100063.00
2022-12-08T02:19:28.621Z,100058.00
2022-12-08T02:21:59.718Z,100057.00
2022-12-08T02:24:39.998Z,100055.00
2022-12-08T02:27:33.934Z,100051.00
2022-12-08T02:30:16.266Z,100045.00
2022-12-08T02:33:29.157Z,100050.00
2022-12-08T02:36:06.026Z,100052.00
2022-12-08T02:38:49.174Z,100060.00
2022-12-08T02:41:29.761Z,100054.00
2022-12-08T02:44:07.365Z,100045.00
2022-12-08T02:46:42.095Z,100042.00
2022-12-08T02:49:14.718Z,100036.00
2022-12-08T02:51:44.910Z,100045.00
2022-12-08T02:54:14.467Z,100045.00
2022-12-08T02:57:08.261Z,100053.00
2022-12-08T03:00:03.834Z,100057.00
2022-12-08T03:03:06.882Z,100050.00
2022-12-08T03:05:58.936Z,100053.00
2022-12-08T03:08:40.221Z,100051.00
2022-12-08T03:11:20.454Z,100051.00
2022-12-08T03:13:54.128Z,100058.00
2022-12-08T03:16:27.363Z,100049.00
2022-12-08T03:19:04.085Z,100051.00
2022-12-08T03:21:36.428Z,100040.00
2022-12-08T03:24:11.187Z,100049.00
2022-12-08T03:26:49.764Z,100046.00
2022-12-08T03:29:18.980Z,100052.00
2022-12-08T03:31:54.561Z,100056.00
2022-12-08T03:34:27.449Z,100055.00
2022-12-08T03:36:56.280Z,100048.00
2022-12-08T03:39:26.570Z,100051.00
2022-12-08T03:41:56.938Z,100047.00
2022-12-08T03:44:25.631Z,100043.00
2022-12-08T03:46:54.422Z,100034.00
2022-12-08T03:49:23.082Z,100044.00
2022-12-08T03:51:52.360Z,100037.00
2022-12-08T03:54:21.198Z,100035.00
2022-12-08T03:56:51.619Z,100037.00
2022-12-08T03:59:20.345Z,100049.00
2022-12-08T04:01:49.257Z,100044.00
2022-12-08T04:04:19.052Z,100048.00
2022-12-08T04:06:47.779Z,100033.00
2022-12-08T04:09:16.513Z,100042.00
2022-12-08T04:11:45.498Z,100042.00
2022-12-08T04:14:15.592Z,100029.00
2022-12-08T04:16:44.302Z,100030.00
2022-12-08T04:19:13.015Z,100035.00
2022-12-08T04:21:41.646Z,100026.00
2022-12-08T04:24:11.136Z,100030.00
2022-12-08T04:26:39.810Z,100019.00
2022-12-08T04:29:08.579Z,100018.00
2022-12-08T04:31:39.132Z,100018.00
2022-12-08T04:34:07.918Z,100012.00
2022-12-08T04:36:36.778Z,100009.00
2022-12-08T04:39:05.839Z,100007.00
2022-12-08T04:41:34.976Z,100002.00
2022-12-08T04:44:03.659Z,100006.00
2022-12-08T04:46:32.509Z,99999.00
2022-12-08T04:49:02.627Z,100005.00
2022-12-08T04:51:31.356Z,100007.00
2022-12-08T04:54:00.083Z,100011.00
2022-12-08T04:56:28.805Z,100014.00
2022-12-08T04:58:57.465Z,100004.00
2022-12-08T05:01:26.564Z,100000.00
2022-12-08T05:03:55.308Z,100011.00
2022-12-08T05:06:25.654Z,99999.00
2022-12-08T05:08:54.412Z,100003.00
2022-12-08T05:11:23.070Z,99991.00
2022-12-08T05:13:51.785Z,99986.00
2022-12-08T05:16:20.483Z,99989.00
2022-12-08T05:18:49.372Z,100002.00
2022-12-08T05:21:18.132Z,100008.00
2022-12-08T05:23:48.175Z,99997.00
2022-12-08T05:26:16.851Z,100001.00
2022-12-08T05:28:45.806Z,100010.00
2022-12-08T05:31:17.202Z,100006.00
2022-12-08T05:33:47.556Z,100009.00
2022-12-08T05:36:17.912Z,100009.00
2022-12-08T05:38:48.588Z,100007.00
2022-12-08T05:41:20.716Z,100010.00
2022-12-08T05:43:50.223Z,100004.00
2022-12-08T05:46:19.632Z,100003.00
2022-12-08T05:48:48.509Z,100003.00
2022-12-08T05:51:20.573Z,100017.00
2022-12-08T05:53:51.649Z,100005.00
2022-12-08T05:56:21.857Z,100013.00
2022-12-08T05:58:51.236Z,100003.00
2022-12-08T06:01:22.923Z,100009.00
2022-12-08T06:03:51.981Z,100015.00
2022-12-08T06:06:21.193Z,100005.00
2022-12-08T06:08:51.346Z,100009.00
2022-12-08T06:11:21.462Z,100007.00
2022-12-08T06:13:51.163Z,100013.00
2022-12-08T06:16:20.377Z,100001.00
2022-12-08T06:18:49.247Z,100006.00
2022-12-08T06:21:19.109Z,100009.00
2022-12-08T06:23:52.634Z,100004.00
2022-12-08T06:26:22.668Z,100006.00
2022-12-08T06:28:52.105Z,99991.00
2022-12-08T06:31:24.323Z,100010.00
2022-12-08T06:33:54.643Z,99992.00
2022-12-08T06:36:25.949Z,99999.00
2022-12-08T06:38:56.147Z,99993.00
2022-12-08T06:41:25.195Z,99988.00
2022-12-08T06:43:56.558Z,99970.00
2022-12-08T06:46:25.839Z,99999.00
2022-12-08T06:48:55.232Z,99982.00
2022-12-08T06:51:24.059Z,99993.00
2022-12-08T06:53:52.688Z,99991.00
2022-12-08T06:56:27.989Z,99987.00
2022-12-08T06:58:56.865Z,99988.00
2022-12-08T07:01:25.589Z,99985.00
2022-12-08T07:03:55.542Z,99984.00
2022-12-08T07:06:26.260Z,100003.00
2022-12-08T07:08:54.991Z,99996.00
2022-12-08T07:11:25.160Z,99989.00
2022-12-08T07:13:54.776Z,99991.00
2022-12-08T07:16:23.566Z,99998.00
2022-12-08T07:18:52.419Z,99997.00
2022-12-08T07:21:21.189Z,100003.00
2022-12-08T07:23:57.277Z,100002.00
2022-12-08T07:26:28.026Z,99997.00
2022-12-08T07:28:56.829Z,99992.00
2022-12-08T07:31:28.531Z,99994.00
2022-12-08T07:33:58.519Z,99996.00
2022-12-08T07:36:28.140Z,99999.00
2022-12-08T07:38:56.901Z,99994.00
2022-12-08T07:41:28.369Z,99990.00
2022-12-08T07:43:58.347Z,99994.00
2022-12-08T07:46:28.001Z,99991.00
2022-12-08T07:48:57.392Z,100002.00
2022-12-08T07:51:26.243Z,99998.00
2022-12-08T07:53:55.543Z,99989.00
2022-12-08T07:56:25.014Z,99995.00
2022-12-08T07:58:55.180Z,99992.00
2022-12-08T08:01:28.111Z,99990.00
2022-12-08T08:04:01.523Z,99991.00
2022-12-08T08:06:30.461Z,99988.00
2022-12-08T08:08:59.140Z,99997.00
2022-12-08T08:11:27.845Z,99993.00
2022-12-08T08:13:58.699Z,99990.00
2022-12-08T08:16:28.503Z,99990.00
2022-12-08T08:18:58.771Z,99992.00
2022-12-08T08:24:16.287Z,99987.00
2022-12-08T08:26:45.111Z,99976.00
2022-12-08T08:29:15.145Z,99977.00
2022-12-08T08:31:43.928Z,99984.00
2022-12-08T08:34:13.417Z,99980.00
2022-12-08T08:36:42.115Z,99968.00
2022-12-08T08:39:10.789Z,99971.00
2022-12-08T08:41:39.539Z,99975.00
2022-12-08T08:44:08.361Z,99965.00
2022-12-08T08:46:38.425Z,99976.00
2022-12-08T08:49:07.172Z,99975.00
2022-12-08T08:51:35.819Z,99973.00
2022-12-08T08:54:04.621Z,99971.00
2022-12-08T08:56:33.307Z,99975.00
2022-12-08T08:59:03.148Z,99966.00
2022-12-08T09:01:32.126Z,99968.00
2022-12-08T09:04:02.553Z,99964.00
2022-12-08T09:06:31.388Z,99969.00
2022-12-08T09:09:00.233Z,99960.00
2022-12-08T09:11:28.978Z,99968.00
2022-12-08T09:13:57.805Z,99957.00
2022-12-08T09:16:26.687Z,99959.00
2022-12-08T09:18:55.639Z,99963.00
2022-12-08T09:21:27.997Z,99946.00
2022-12-08T09:24:00.027Z,99949.00
2022-12-08T09:26:30.059Z,99953.00
2022-12-08T09:28:59.411Z,99956.00
2022-12-08T09:31:28.353Z,99957.00
2022-12-08T09:33:57.111Z,99945.00
2022-12-08T09:36:27.867Z,99959.00
2022-12-08T09:38:56.515Z,99955.00
2022-12-08T09:41:39.284Z,99952.00
2022-12-08T09:44:45.402Z,99959.00
2022-12-08T09:47:22.728Z,99954.00
2022-12-08T09:50:00.948Z,99940.00
2022-12-08T09:52:39.514Z,99953.00
2022-12-08T09:55:22.354Z,99955.00
2022-12-08T09:58:01.961Z,99943.00
2022-12-08T10:00:30.731Z,99941.00
2022-12-08T10:03:00.178Z,99933.00
2022-12-08T10:05:31.229Z,99923.00
2022-12-08T10:08:13.591Z,99939.00
2022-12-08T10:10:58.332Z,99941.00
2022-12-08T10:13:39.406Z,99935.00
2022-12-08T10:16:29.509Z,99936.00
2022-12-08T10:19:12.334Z,99929.00
2022-12-08T10:21:42.087Z,99945.00
2022-12-08T10:24:26.120Z,99930.00
2022-12-08T10:26:57.957Z,99927.00
2022-12-08T10:29:26.679Z,99937.00
2022-12-08T10:31:57.252Z,99932.00
2022-12-08T10:34:26.213Z,99935.00
2022-12-08T10:36:58.634Z,99927.00
2022-12-08T10:39:38.455Z,99934.00
2022-12-08T10:42:21.473Z,99927.00
2022-12-08T10:45:00.308Z,99931.00
2022-12-08T10:47:31.658Z,99923.00
2022-12-08T10:50:25.627Z,99934.00
2022-12-08T10:53:00.235Z,99929.00
2022-12-08T10:55:41.787Z,99922.00
2022-12-08T10:58:33.876Z,99927.00
2022-12-08T11:01:08.074Z,99922.00
2022-12-08T11:03:48.892Z,99927.00
2022-12-08T11:06:21.747Z,99934.00
2022-12-08T11:08:55.206Z,99925.00
2022-12-08T11:11:40.672Z,99927.00
2022-12-08T11:14:15.347Z,99930.00
2022-12-08T11:16:45.248Z,99927.00
2022-12-08T11:19:19.727Z,99927.00
2022-12-08T11:21:49.376Z,99928.00
2022-12-08T11:24:27.340Z,99920.00
2022-12-08T11:27:07.650Z,99924.00
2022-12-08T11:29:37.658Z,99912.00
2022-12-08T11:32:13.714Z,99921.00
2022-12-08T11:34:48.011Z,99914.00
2022-12-08T11:37:24.136Z,99907.00
2022-12-08T11:39:59.544Z,99906.00
2022-12-08T11:42:39.735Z,99923.00
2022-12-08T11:45:16.360Z,99912.00
2022-12-08T11:47:55.584Z,99906.00
2022-12-08T11:50:30.873Z,99904.00
2022-12-08T11:53:02.917Z,99909.00
2022-12-08T11:55:40.695Z,99907.00
2022-12-08T11:58:20.887Z,99901.00
2022-12-08T12:00:50.909Z,99910.00
2022-12-08T12:03:30.002Z,99904.00
2022-12-08T12:06:46.354Z,99904.00
2022-12-08T12:09:19.043Z,99904.00
2022-12-08T12:12:15.968Z,99905.00
2022-12-08T12:15:34.068Z,99901.00
2022-12-08T12:18:16.547Z,99896.00
2022-12-08T12:20:55.643Z,99895.00
2022-12-08T12:23:37.449Z,99898.00
2022-12-08T12:26:08.985Z,99888.00
2022-12-08T12:28:54.726Z,99889.00
2022-12-08T12:31:29.966Z,99892.00
2022-12-08T12:34:10.221Z,99894.00
2022-12-08T12:36:56.190Z,99891.00
2022-12-08T12:39:31.155Z,99880.00
2022-12-08T12:42:02.698Z,99888.00
2022-12-08T12:44:44.536Z,99894.00
2022-12-08T12:47:56.708Z,99885.00
2022-12-08T12:50:46.104Z,99896.00
2022-12-08T12:53:50.878Z,99895.00
2022-12-08T12:56:56.592Z,99896.00
2022-12-08T12:59:53.288Z,99885.00
2022-12-08T13:02:30.006Z,99888.00
2022-12-08T13:05:04.536Z,99887.00
2022-12-08T13:07:37.355Z,99881.00
2022-12-08T13:10:19.524Z,99884.00
2022-12-08T13:13:07.048Z,99883.00
2022-12-08T13:15:39.596Z,99886.00
2022-12-08T13:18:22.344Z,99879.00
2022-12-08T13:20:55.973Z,99888.00
2022-12-08T13:23:49.076Z,99890.00
2022-12-08T13:26:22.152Z,99885.00
2022-12-08T13:29:23.761Z,99888.00
2022-12-08T13:31:55.447Z,99888.00
2022-12-08T13:34:39.357Z,99887.00
2022-12-08T13:37:28.667Z,99879.00
2022-12-08T13:40:05.150Z,99881.00
2022-12-08T13:42:44.691Z,99879.00
2022-12-08T13:45:48.702Z,99881.00
2022-12-08T13:48:33.186Z,99892.00
2022-12-08T13:53:15.835Z,99886.00
2022-12-08T13:57:28.838Z,99873.00
2022-12-08T14:00:02.477Z,99886.00
2022-12-08T14:02:48.899Z,99882.00
2022-12-08T14:05:29.817Z,99876.00
2022-12-08T14:08:57.080Z,99888.00
2022-12-08T14:11:34.755Z,99885.00
2022-12-08T14:14:07.521Z,99870.00
2022-12-08T14:16:41.223Z,99877.00
2022-12-08T14:19:28.633Z,99885.00
2022-12-08T14:22:05.383Z,99876.00
2022-12-08T14:24:38.287Z,99886.00
2022-12-08T14:27:10.406Z,99885.00
2022-12-08T14:29:44.262Z,99877.00
2022-12-08T14:32:32.994Z,99887.00
2022-12-08T14:35:14.706Z,99877.00
2022-12-08T14:37:47.896Z,99872.00
2022-12-08T14:40:24.766Z,99874.00
2022-12-08T14:43:14.951Z,99872.00
2022-12-08T14:45:53.572Z,99872.00
2022-12-08T14:48:25.401Z,99861.00
2022-12-08T14:51:07.262Z,99879.00
2022-12-08T14:53:42.165Z,99877.00
2022-12-08T14:56:22.037Z,99875.00
2022-12-08T14:59:05.429Z,99877.00
2022-12-08T15:01:35.977Z,99868.00
2022-12-08T15:04:11.527Z,99872.00
2022-12-08T15:06:52.054Z,99876.00
2022-12-08T15:09:36.696Z,99873.00
2022-12-08T15:12:23.254Z,99885.00
2022-12-08T15:15:00.908Z,99877.00
2022-12-08T15:17:36.617Z,99874.00
2022-12-08T15:20:09.836Z,99883.00
2022-12-08T15:22:38.534Z,99883.00
2022-12-08T15:25:13.971Z,99881.00
2022-12-08T15:27:50.434Z,99878.00
2022-12-08T15:30:20.880Z,99871.00
2022-12-08T15:32:52.363Z,99867.00
2022-12-08T15:35:21.594Z,99865.00
2022-12-08T15:37:50.413Z,99874.00
2022-12-08T15:40:22.962Z,99869.00
2022-12-08T15:42:53.041Z,99868.00
2022-12-08T15:45:29.664Z,99860.00
2022-12-08T15:47:58.930Z,99858.00
2022-12-08T15:50:27.808Z,99853.00
2022-12-08T15:52:56.515Z,99856.00
2022-12-08T15:55:25.308Z,99851.00
2022-12-08T16:00:54.146Z,99847.00
2022-12-08T16:04:19.832Z,99839.00
2022-12-08T16:07:04.821Z,99834.00
2022-12-08T16:09:22.566Z,99830.00
2022-12-08T16:12:12.519Z,99834.00
2022-12-08T16:17:35.151Z,99829.00
2022-12-08T16:20:06.037Z,99828.00
2022-12-08T16:25:46.245Z,99826.00
2022-12-08T16:28:52.083Z,99827.00
2022-12-08T16:31:13.333Z,99834.00
2022-12-08T16:33:45.626Z,99817.00
2022-12-08T16:36:14.419Z,99824.00
2022-12-08T16:38:47.690Z,99825.00
2022-12-08T16:41:36.324Z,99823.00
2022-12-08T16:44:07.491Z,99826.00
2022-12-08T16:46:42.907Z,99810.00
2022-12-08T16:49:15.681Z,99817.00
2022-12-08T16:51:49.926Z,99822.00
2022-12-08T16:54:20.793Z,99820.00
2022-12-08T16:56:59.720Z,99808.00
2022-12-08T16:59:35.388Z,99813.00
2022-12-08T17:02:16.589Z,99807.00
2022-12-08T17:04:47.152Z,99819.00
2022-12-08T17:07:16.393Z,99810.00
2022-12-08T17:09:46.368Z,99811.00
2022-12-08T17:12:15.855Z,99806.00
2022-12-08T17:14:44.729Z,99821.00
2022-12-08T17:17:15.853Z,99812.00
2022-12-08T17:19:45.668Z,99821.00
2022-12-08T17:22:15.427Z,99808.00
2022-12-08T17:24:44.488Z,99812.00
2022-12-08T17:27:13.384Z,99809.00
2022-12-08T17:29:42.155Z,99818.00
2022-12-08T17:32:10.927Z,99825.00
2022-12-08T17:34:41.106Z,99821.00
2022-12-08T17:37:10.116Z,99825.00
2022-12-08T17:39:39.230Z,99825.00
2022-12-08T17:42:08.148Z,99831.00
2022-12-08T17:44:40.083Z,99829.00
2022-12-08T17:47:09.105Z,99833.00
2022-12-08T17:49:37.906Z,99833.00
2022-12-08T17:52:23.748Z,99842.00
2022-12-08T17:54:54.922Z,99839.00
2022-12-08T17:57:23.558Z,99840.00
2022-12-08T17:59:54.551Z,99829.00
2022-12-08T18:02:23.345Z,99854.00
2022-12-08T18:04:52.130Z,99840.00
2022-12-08T18:07:24.319Z,99834.00
2022-12-08T18:09:53.251Z,99837.00
2022-12-08T18:12:23.868Z,99845.00
2022-12-08T18:14:54.710Z,99854.00
2022-12-08T18:17:23.549Z,99843.00
2022-12-08T18:19:52.322Z,99853.00
2022-12-08T18:22:22.470Z,99860.00
2022-12-08T18:24:51.207Z,99861.00
2022-12-08T18:27:20.027Z,99865.00
2022-12-08T18:29:48.772Z,99867.00
2022-12-08T18:32:17.547Z,99875.00
2022-12-08T18:34:46.373Z,99864.00
2022-12-08T18:37:15.059Z,99875.00
2022-12-08T18:39:45.185Z,99875.00
2022-12-08T18:42:28.005Z,99885.00
2022-12-08T18:45:02.875Z,99884.00
2022-12-08T18:47:35.485Z,99890.00
2022-12-08T18:50:05.618Z,99894.00
2022-12-08T18:52:35.112Z,99898.00
2022-12-08T18:55:07.221Z,99903.00
2022-12-08T18:57:37.672Z,99906.00
2022-12-08T19:00:08.984Z,99901.00
2022-12-08T19:02:39.782Z,99924.00
2022-12-08T19:05:10.323Z,99922.00
2022-12-08T19:07:39.757Z,99935.00
2022-12-08T19:10:11.653Z,99940.00
2022-12-08T19:12:42.148Z,99947.00
2022-12-08T19:15:12.151Z,99943.00
2022-12-08T19:17:40.779Z,99946.00
2022-12-08T19:20:11.282Z,99955.00
2022-12-08T19:22:40.108Z,99955.00
2022-12-08T19:25:10.844Z,99958.00
2022-12-08T19:27:39.578Z,99971.00
2022-12-08T19:30:10.920Z,99971.00
2022-12-08T19:32:39.573Z,99976.00
2022-12-08T19:35:09.111Z,99984.00
2022-12-08T19:37:46.780Z,99973.00
2022-12-08T19:40:34.394Z,99983.00
2022-12-08T19:43:20.328Z,99998.00
2022-12-08T19:45:49.019Z,99983.00
2022-12-08T19:48:17.666Z,100001.00
2022-12-08T19:50:46.293Z,100000.00
2022-12-08T19:53:16.968Z,100013.00
2022-12-08T19:55:46.939Z,100012.00
2022-12-08T19:58:15.699Z,100031.00
2022-12-08T20:00:46.093Z,100035.00
2022-12-08T20:03:17.682Z,100048.00
2022-12-08T20:05:49.624Z,100057.00
2022-12-08T20:08:18.729Z,100066.00
2022-12-08T20:10:48.784Z,100064.00
2022-12-08T20:13:35.063Z,100085.00
2022-12-08T20:16:03.762Z,100092.00
2022-12-08T20:18:32.675Z,100088.00
2022-12-08T20:21:01.589Z,100087.00
2022-12-08T20:23:30.347Z,100092.00
2022-12-08T20:26:00.803Z,100102.00
2022-12-08T20:28:29.563Z,100098.00
2022-12-08T20:30:58.349Z,100117.00
2022-12-08T20:33:27.117Z,100119.00
2022-12-08T20:36:00.428Z,100117.00
2022-12-08T20:38:30.155Z,100132.00
2022-12-08T20:41:00.809Z,100146.00
2022-12-08T20:43:29.450Z,100139.00
2022-12-08T20:45:58.104Z,100150.00
2022-12-08T20:48:27.000Z,100156.00
2022-12-08T20:50:55.958Z,100162.00
2022-12-08T20:53:24.807Z,100152.00
2022-12-08T20:55:53.428Z,100167.00
2022-12-08T20:58:24.080Z,100170.00
2022-12-08T21:00:52.948Z,100175.00
2022-12-08T21:03:21.979Z,100188.00
2022-12-08T21:05:52.158Z,100187.00
2022-12-08T21:08:25.159Z,100205.00
2022-12-08T21:10:58.231Z,100183.00
2022-12-08T21:13:30.103Z,100198.00
2022-12-08T21:15:59.816Z,100193.00
2022-12-08T21:18:30.396Z,100217.00
2022-12-08T21:21:05.845Z,100206.00
2022-12-08T21:23:35.606Z,100214.00
2022-12-08T21:26:11.430Z,100243.00
2022-12-08T21:28:42.276Z,100227.00
2022-12-08T21:31:13.196Z,100242.00
2022-12-08T21:33:42.415Z,100242.00
2022-12-08T21:36:15.578Z,100261.00
2022-12-08T21:38:45.666Z,100271.00
2022-12-08T21:41:37.422Z,100270.00
2022-12-08T21:44:09.583Z,100264.00
2022-12-08T21:46:38.717Z,100276.00
2022-12-08T21:49:08.078Z,100286.00
2022-12-08T21:51:41.476Z,100289.00
2022-12-08T21:54:15.029Z,100292.00
2022-12-08T21:56:48.815Z,100283.00
2022-12-08T21:59:19.984Z,100301.00
2022-12-08T22:01:49.506Z,100293.00
2022-12-08T22:04:21.759Z,100305.00
2022-12-08T22:06:51.060Z,100294.00
2022-12-08T22:09:20.141Z,100317.00
2022-12-08T22:11:49.276Z,100308.00
2022-12-08T22:14:19.697Z,100312.00
2022-12-08T22:16:48.812Z,100325.00
2022-12-08T22:19:18.034Z,100326.00
2022-12-08T22:21:47.311Z,100326.00
2022-12-08T22:24:16.105Z,100347.00
2022-12-08T22:26:44.975Z,100336.00
2022-12-08T22:29:13.810Z,100353.00
2022-12-08T22:31:44.292Z,100355.00
2022-12-08T22:34:14.797Z,100344.00
2022-12-08T22:36:44.540Z,100357.00
2022-12-08T22:39:13.567Z,100367.00
2022-12-08T22:41:42.331Z,100375.00
2022-12-08T22:44:12.039Z,100353.00
2022-12-08T22:46:41.129Z,100389.00
2022-12-08T22:49:11.348Z,100393.00
2022-12-08T22:51:42.447Z,100397.00
2022-12-08T22:54:12.821Z,100405.00
2022-12-08T22:56:41.952Z,100403.00
2022-12-08T22:59:10.774Z,100387.00
2022-12-08T23:01:39.713Z,100405.00
2022-12-08T23:04:14.197Z,100412.00
2022-12-08T23:06:47.448Z,100408.00
2022-12-08T23:09:16.534Z,100407.00
2022-12-08T23:11:45.463Z,100419.00
2022-12-08T23:14:14.310Z,100418.00
2022-12-08T23:16:43.194Z,100419.00
2022-12-08T23:19:12.202Z,100436.00
2022-12-08T23:21:41.266Z,100434.00
2022-12-08T23:24:11.756Z,100421.00
2022-12-08T23:26:40.622Z,100441.00
2022-12-08T23:29:09.526Z,100451.00
2022-12-08T23:31:39.750Z,100448.00
2022-12-08T23:34:08.548Z,100450.00
2022-12-08T23:36:37.387Z,100451.00
2022-12-08T23:39:06.832Z,100457.00
2022-12-08T23:41:37.075Z,100457.00
2022-12-08T23:44:06.010Z,100465.00
2022-12-08T23:46:35.136Z,100464.00
2022-12-08T23:49:04.008Z,100464.00
2022-12-08T23:51:32.883Z,100456.00
2022-12-08T23:54:01.731Z,100464.00
2022-12-08T23:56:30.940Z,100470.00
2022-12-08T23:59:02.365Z,100476.00
